ENBR

Bergen , Flesland Airport

Bergen, Norway
METAR ENBR 251450Z 19018KT 9999 FEW015 SCT020 BKN055 12/08 Q1023 NOSIG RMK WIND 1200FT 19021KT
Observed Flight Rules
Sep-25 @ 14:50 UTC (21 minutes ago) Visual Flight Rules
Wind Visibility Clouds
190° at 18 knots 10,000+ meters
  • Few at 1,500' AGL
  • Scattered at 2,000' AGL
  • Broken at 5,500' AGL
Temperatures Readings
Current 12°C / 54°F
Dewpoint 8°C / 46°F
Humidity 77%
Altimeter 30.21" Hg
Pressure 1023 hPa
Elevation 50
METAR ENBR 251450Z 19018KT 9999 FEW015 SCT020 BKN055 12/08 Q1023 NOSIG RMK WIND 1200FT 19021KT
Observed Flight Rules
Sep-25 @ 14:50 UTC
(21 minutes ago)
VFR
Wind Visibility
190° at 18 knots 10,000+ meters
Clouds
  • Few at 1,500' AGL
  • Scattered at 2,000' AGL
  • Broken at 5,500' AGL
Temperature Dewpoint
12°C / 54°F 8°C / 46°F
Humidity Altimeter Pressure
77% 30.21" Hg 1023 hPa